Time;durP1;ratioP1;P1;durP2;ratioP2;P2;SDS_P1;SDS_P2;PMS_P1;PMS_P2;Temp;Humidity;BMP_temperature;BMP_pressure;BME280_temperature;BME280_humidity;BME280_pressure;Samples;Min_cycle;Max_cycle;Signal;HPM_P1;HPM_P2
2021/05/02 00:01:24;;;;;;;27.65;16.10;;;8.80;99.90;;;;;;3527650;40;20053;-60
2021/05/02 00:03:50;;;;;;;27.67;16.27;;;8.70;99.90;;;;;;3527195;40;20038;-60
2021/05/02 00:06:16;;;;;;;31.70;17.05;;;8.70;99.90;;;;;;3523865;40;20088;-60
2021/05/02 00:08:43;;;;;;;29.75;17.60;;;8.70;99.90;;;;;;3532373;40;20042;-60
2021/05/02 00:11:10;;;;;;;29.67;18.20;;;8.70;99.90;;;;;;3525279;40;20060;-59
2021/05/02 00:13:37;;;;;;;27.27;16.73;;;8.70;99.90;;;;;;3526097;40;20042;-60
2021/05/02 00:16:03;;;;;;;30.55;17.58;;;8.70;99.90;;;;;;3533865;40;20035;-59
2021/05/02 00:18:31;;;;;;;32.03;18.05;;;8.70;99.90;;;;;;3527203;40;20037;-59
2021/05/02 00:20:57;;;;;;;28.23;17.17;;;8.70;99.90;;;;;;3527112;40;20042;-59
2021/05/02 00:23:23;;;;;;;32.28;17.38;;;8.60;99.90;;;;;;3526788;40;20300;-60
2021/05/02 00:25:50;;;;;;;30.15;16.98;;;8.60;99.90;;;;;;3527740;40;20107;-60
2021/05/02 00:28:16;;;;;;;31.05;17.08;;;8.70;99.90;;;;;;3529078;40;20027;-67
2021/05/02 00:30:43;;;;;;;32.47;18.02;;;8.70;99.90;;;;;;3529086;40;20132;-59
2021/05/02 00:33:09;;;;;;;30.63;17.75;;;8.60;99.90;;;;;;3529095;40;20678;-59
2021/05/02 00:35:35;;;;;;;33.20;17.85;;;8.60;99.90;;;;;;3528906;40;20121;-67
2021/05/02 00:38:02;;;;;;;30.48;17.83;;;8.60;99.90;;;;;;3528608;40;20121;-67
2021/05/02 00:40:36;;;;;;;29.33;17.70;;;8.60;99.90;;;;;;3528046;40;20042;-67
2021/05/02 00:43:26;;;;;;;33.38;17.55;;;8.60;99.90;;;;;;3525401;40;20050;-67
2021/05/02 00:45:52;;;;;;;30.58;18.23;;;8.60;99.90;;;;;;3527843;40;20054;-67
2021/05/02 00:48:26;;;;;;;29.55;16.75;;;8.60;99.90;;;;;;3527771;40;20046;-67
2021/05/02 00:51:00;;;;;;;30.50;18.45;;;8.50;99.90;;;;;;3526467;40;20079;-67
2021/05/02 00:53:46;;;;;;;32.03;18.65;;;8.50;99.90;;;;;;3525009;40;20117;-66
2021/05/02 00:56:25;;;;;;;34.15;17.67;;;8.50;99.90;;;;;;3525538;40;20125;-67
2021/05/02 00:59:02;;;;;;;30.58;18.85;;;8.40;99.90;;;;;;3533762;40;20075;-67
2021/05/02 01:01:38;;;;;;;37.25;20.27;;;8.50;99.90;;;;;;3524828;40;20043;-67
2021/05/02 01:04:04;;;;;;;36.65;21.20;;;8.50;99.90;;;;;;3526668;40;20042;-67
2021/05/02 01:06:32;;;;;;;37.95;21.92;;;8.50;99.90;;;;;;3526971;40;20042;-67
2021/05/02 01:09:02;;;;;;;38.40;21.27;;;8.50;99.90;;;;;;3528226;40;20042;-67
2021/05/02 01:11:29;;;;;;;40.28;22.58;;;8.60;99.90;;;;;;3529497;40;20729;-67
2021/05/02 01:13:57;;;;;;;35.28;21.67;;;8.50;99.90;;;;;;3528466;40;20055;-67
2021/05/02 01:16:34;;;;;;;36.35;21.13;;;8.50;99.90;;;;;;3529636;40;20062;-67
2021/05/02 01:19:04;;;;;;;42.63;22.35;;;8.40;99.90;;;;;;3529480;40;20163;-67
2021/05/02 01:21:32;;;;;;;40.55;23.23;;;8.40;99.90;;;;;;3528689;40;20050;-67
2021/05/02 01:23:59;;;;;;;42.00;23.83;;;8.40;99.90;;;;;;3536927;40;20041;-67
2021/05/02 01:26:26;;;;;;;41.15;22.48;;;8.40;99.90;;;;;;3530252;40;20038;-60
2021/05/02 01:28:55;;;;;;;42.63;22.58;;;8.30;99.90;;;;;;3529737;40;20038;-59
2021/05/02 01:31:21;;;;;;;42.63;23.00;;;8.30;99.90;;;;;;3529631;40;20110;-59
2021/05/02 01:33:48;;;;;;;38.65;22.23;;;8.30;99.90;;;;;;3529316;40;20039;-60
2021/05/02 01:36:14;;;;;;;37.80;22.25;;;8.20;99.90;;;;;;3529610;40;20051;-60
2021/05/02 01:38:40;;;;;;;39.22;21.42;;;8.20;99.90;;;;;;3529890;40;20456;-60
2021/05/02 01:41:06;;;;;;;40.33;22.05;;;8.20;99.90;;;;;;3530012;40;20038;-59
2021/05/02 01:43:31;;;;;;;42.80;22.85;;;8.20;99.90;;;;;;3529427;40;20035;-60
2021/05/02 01:45:57;;;;;;;41.05;23.25;;;8.10;99.90;;;;;;3530001;40;20039;-59
2021/05/02 01:48:24;;;;;;;39.83;22.30;;;8.10;99.90;;;;;;3529651;40;20444;-60
2021/05/02 01:51:08;;;;;;;39.90;23.10;;;8.10;99.90;;;;;;3528970;40;20662;-60
2021/05/02 01:53:37;;;;;;;38.38;22.88;;;8.00;99.90;;;;;;3528730;40;20522;-60
2021/05/02 01:56:04;;;;;;;40.45;22.38;;;8.00;99.90;;;;;;3530367;40;20101;-59
2021/05/02 01:58:31;;;;;;;42.17;23.08;;;8.00;99.90;;;;;;3530056;40;20066;-60
2021/05/02 02:01:00;;;;;;;43.17;23.67;;;8.00;99.90;;;;;;3529612;40;20854;-59
2021/05/02 02:03:26;;;;;;;41.63;23.50;;;8.00;99.90;;;;;;3530100;40;20055;-59
2021/05/02 02:05:52;;;;;;;39.35;23.35;;;8.00;99.90;;;;;;3529797;40;20047;-60
2021/05/02 02:08:18;;;;;;;43.30;24.42;;;8.00;99.90;;;;;;3529839;40;20046;-60
2021/05/02 02:10:46;;;;;;;42.60;23.90;;;8.00;99.90;;;;;;3529587;40;20533;-59
2021/05/02 02:13:14;;;;;;;39.15;22.52;;;8.10;99.90;;;;;;3529410;40;20045;-59
2021/05/02 02:15:40;;;;;;;43.00;23.80;;;8.10;99.90;;;;;;3529665;40;20093;-60
2021/05/02 02:18:08;;;;;;;44.40;24.88;;;8.10;99.90;;;;;;3529389;40;20034;-60
2021/05/02 02:20:46;;;;;;;44.22;23.80;;;8.10;99.90;;;;;;3529510;40;20181;-59
2021/05/02 02:23:35;;;;;;;47.53;24.17;;;8.00;99.90;;;;;;3529405;40;20042;-59
2021/05/02 02:26:26;;;;;;;42.33;23.88;;;8.00;99.90;;;;;;3529709;40;20043;-61
2021/05/02 02:28:53;;;;;;;40.92;22.65;;;8.00;99.90;;;;;;3530827;40;20059;-60
2021/05/02 02:31:21;;;;;;;44.50;23.50;;;7.90;99.90;;;;;;3529859;40;20045;-59
2021/05/02 02:33:47;;;;;;;40.20;22.63;;;7.90;99.90;;;;;;3529568;40;20053;-59
2021/05/02 02:36:14;;;;;;;42.95;23.80;;;7.90;99.90;;;;;;3530202;40;20042;-60
2021/05/02 02:38:42;;;;;;;42.75;23.70;;;7.80;99.90;;;;;;3528944;40;20054;-60
2021/05/02 02:41:11;;;;;;;41.75;23.58;;;7.90;99.90;;;;;;3528789;40;20050;-59
2021/05/02 02:43:41;;;;;;;43.95;23.13;;;7.80;99.90;;;;;;3529383;40;20028;-59
2021/05/02 02:46:10;;;;;;;42.25;24.50;;;7.90;99.90;;;;;;3528564;40;20673;-59
2021/05/02 02:48:44;;;;;;;40.25;23.75;;;7.90;99.90;;;;;;3529305;40;20030;-59
2021/05/02 02:51:13;;;;;;;39.45;22.08;;;7.90;99.90;;;;;;3536539;40;20039;-67
2021/05/02 02:53:41;;;;;;;43.90;23.75;;;7.90;99.90;;;;;;3530375;40;20136;-66
2021/05/02 02:56:12;;;;;;;42.15;23.77;;;7.90;99.90;;;;;;3529711;40;20042;-67
2021/05/02 02:58:52;;;;;;;40.45;23.40;;;7.90;99.90;;;;;;3529888;40;20137;-67
2021/05/02 03:01:17;;;;;;;45.35;23.65;;;7.90;99.90;;;;;;3529173;40;20603;-67
2021/05/02 03:03:45;;;;;;;40.03;23.38;;;7.90;99.90;;;;;;3529227;40;20046;-67
2021/05/02 03:06:12;;;;;;;39.92;22.90;;;7.90;99.90;;;;;;3529343;40;20027;-67
2021/05/02 03:08:39;;;;;;;42.53;23.23;;;7.80;99.90;;;;;;3529601;40;20070;-67
2021/05/02 03:11:06;;;;;;;45.25;24.55;;;7.80;99.90;;;;;;3529153;40;20091;-67
2021/05/02 03:13:32;;;;;;;40.28;23.02;;;7.80;99.90;;;;;;3528854;40;20037;-67
2021/05/02 03:16:03;;;;;;;38.40;21.63;;;7.80;99.90;;;;;;3529334;40;20492;-67
2021/05/02 03:19:12;;;;;;;41.70;23.27;;;7.80;99.90;;;;;;3529563;40;20042;-67
2021/05/02 03:21:54;;;;;;;44.63;24.25;;;7.90;99.90;;;;;;3525897;40;20054;-67
2021/05/02 03:24:30;;;;;;;40.40;22.77;;;7.90;99.90;;;;;;3529450;40;20053;-67
2021/05/02 03:27:10;;;;;;;39.97;23.05;;;7.90;99.90;;;;;;3529609;40;20049;-67
2021/05/02 03:29:38;;;;;;;42.30;22.20;;;7.90;99.90;;;;;;3528174;40;20046;-67
2021/05/02 03:32:10;;;;;;;39.45;22.70;;;7.90;99.90;;;;;;3528821;40;20050;-67
2021/05/02 03:34:40;;;;;;;42.72;24.15;;;7.90;99.90;;;;;;3528916;40;20136;-67
2021/05/02 03:37:10;;;;;;;41.72;23.77;;;7.90;99.90;;;;;;3528119;40;20070;-67
2021/05/02 03:39:38;;;;;;;44.55;23.55;;;7.90;99.90;;;;;;3527424;40;20050;-67
2021/05/02 03:42:04;;;;;;;42.83;24.73;;;7.80;99.90;;;;;;3527746;40;20153;-67
2021/05/02 03:44:30;;;;;;;41.45;23.70;;;7.80;99.90;;;;;;3528473;40;20062;-67
2021/05/02 03:46:56;;;;;;;45.47;24.45;;;7.80;99.90;;;;;;3529177;40;20031;-67
2021/05/02 03:49:22;;;;;;;44.42;24.27;;;7.80;99.90;;;;;;3527263;40;20042;-67
2021/05/02 03:51:47;;;;;;;43.72;23.77;;;7.80;99.90;;;;;;3528585;40;20417;-67
2021/05/02 03:54:13;;;;;;;46.47;25.08;;;7.80;99.90;;;;;;3528520;40;20329;-67
2021/05/02 03:56:42;;;;;;;47.58;24.92;;;7.70;99.90;;;;;;3527732;40;20043;-67
2021/05/02 03:59:19;;;;;;;46.13;25.05;;;7.80;99.90;;;;;;3527509;40;20416;-67
2021/05/02 04:01:51;;;;;;;44.85;24.95;;;7.80;99.90;;;;;;3527553;40;20053;-67
2021/05/02 04:04:20;;;;;;;44.80;25.23;;;7.70;99.90;;;;;;3527766;40;20034;-67
2021/05/02 04:06:46;;;;;;;46.83;25.58;;;7.80;99.90;;;;;;3527843;40;20468;-67
2021/05/02 04:09:13;;;;;;;45.38;25.52;;;7.80;99.90;;;;;;3529116;40;20023;-67
2021/05/02 04:11:39;;;;;;;47.60;25.48;;;7.80;99.90;;;;;;3528651;40;20056;-67
2021/05/02 04:14:07;;;;;;;49.63;25.92;;;7.70;99.90;;;;;;3528688;40;20168;-67
2021/05/02 04:16:33;;;;;;;51.03;26.23;;;7.70;99.90;;;;;;3527846;40;20671;-67
2021/05/02 04:19:03;;;;;;;44.92;24.60;;;7.70;99.90;;;;;;3528871;40;20031;-67
2021/05/02 04:21:29;;;;;;;50.80;26.25;;;7.70;99.90;;;;;;3528272;40;20059;-67
2021/05/02 04:23:55;;;;;;;44.83;25.33;;;7.70;99.90;;;;;;3529309;40;20039;-67
2021/05/02 04:26:20;;;;;;;47.30;25.25;;;7.80;99.90;;;;;;3529037;40;20384;-67
2021/05/02 04:28:46;;;;;;;51.72;27.67;;;7.80;99.90;;;;;;3528588;40;20035;-66
2021/05/02 04:31:12;;;;;;;47.50;26.58;;;7.70;99.90;;;;;;3528263;40;20570;-67
2021/05/02 04:33:38;;;;;;;44.15;25.48;;;7.80;99.90;;;;;;3528171;40;20070;-66
2021/05/02 04:36:04;;;;;;;47.33;26.70;;;7.80;99.90;;;;;;3527886;40;20047;-66
2021/05/02 04:38:30;;;;;;;46.38;26.52;;;7.80;99.90;;;;;;3527902;40;20039;-66
2021/05/02 04:40:56;;;;;;;44.25;24.30;;;7.90;99.90;;;;;;3526746;40;20144;-66
2021/05/02 04:43:22;;;;;;;49.95;24.95;;;7.90;99.90;;;;;;3529047;40;20046;-67
2021/05/02 04:45:47;;;;;;;50.28;26.10;;;7.90;99.90;;;;;;3530215;40;20792;-67
2021/05/02 04:48:13;;;;;;;51.08;25.23;;;7.90;99.90;;;;;;3529755;40;20427;-66
2021/05/02 04:50:39;;;;;;;50.45;26.33;;;7.90;99.90;;;;;;3530537;40;20039;-66
2021/05/02 04:53:05;;;;;;;48.17;25.58;;;8.00;99.90;;;;;;3538134;40;20043;-66
2021/05/02 04:55:31;;;;;;;42.40;24.02;;;7.90;99.90;;;;;;3531113;40;20538;-67
2021/05/02 04:58:06;;;;;;;45.95;25.00;;;7.90;99.90;;;;;;3532586;40;20039;-68
2021/05/02 05:00:32;;;;;;;45.50;25.00;;;8.00;99.90;;;;;;3530882;40;20659;-67
2021/05/02 05:02:58;;;;;;;48.75;27.55;;;8.00;99.90;;;;;;3531572;40;20033;-67
2021/05/02 05:05:24;;;;;;;48.92;25.77;;;8.00;99.90;;;;;;3531546;40;20336;-67
2021/05/02 05:07:50;;;;;;;49.03;26.92;;;8.10;99.90;;;;;;3531457;40;20046;-67
2021/05/02 05:10:17;;;;;;;47.45;24.92;;;8.20;99.90;;;;;;3529585;40;20037;-66
2021/05/02 05:12:43;;;;;;;49.42;25.77;;;8.20;99.90;;;;;;3530133;40;20030;-67
2021/05/02 05:15:09;;;;;;;52.03;26.40;;;8.30;99.90;;;;;;3529960;40;20839;-67
2021/05/02 05:17:35;;;;;;;49.42;26.40;;;8.30;99.90;;;;;;3529506;40;20116;-67
2021/05/02 05:20:03;;;;;;;47.75;26.80;;;8.30;99.90;;;;;;3529614;40;20038;-67
2021/05/02 05:22:28;;;;;;;50.95;26.90;;;8.30;99.90;;;;;;3529451;40;20695;-67
2021/05/02 05:24:54;;;;;;;54.70;26.13;;;8.30;99.90;;;;;;3529682;40;20053;-67
2021/05/02 05:27:20;;;;;;;49.38;25.95;;;8.30;99.90;;;;;;3529122;40;20316;-67
2021/05/02 05:29:45;;;;;;;51.03;27.13;;;8.30;99.90;;;;;;3529882;40;20047;-67
2021/05/02 05:32:11;;;;;;;46.65;25.30;;;8.40;99.90;;;;;;3529745;40;20066;-67
2021/05/02 05:34:36;;;;;;;52.05;26.75;;;8.40;99.90;;;;;;3530284;40;20109;-67
2021/05/02 05:37:02;;;;;;;50.08;26.65;;;8.40;99.90;;;;;;3530646;40;20691;-66
2021/05/02 05:39:28;;;;;;;49.67;25.38;;;8.40;99.90;;;;;;3530904;40;20141;-67
2021/05/02 05:41:54;;;;;;;51.28;26.55;;;8.40;99.90;;;;;;3530716;40;20046;-68
2021/05/02 05:44:19;;;;;;;42.75;23.27;;;8.50;99.90;;;;;;3531259;40;20093;-68
2021/05/02 05:46:45;;;;;;;51.13;26.25;;;8.50;99.90;;;;;;3530947;40;20826;-67
2021/05/02 05:49:13;;;;;;;45.78;24.77;;;8.50;99.90;;;;;;3530779;40;20038;-68
2021/05/02 05:51:38;;;;;;;51.63;26.20;;;8.60;99.90;;;;;;3530450;40;20035;-67
2021/05/02 05:54:04;;;;;;;52.15;25.25;;;8.60;99.90;;;;;;3531269;40;20069;-67
2021/05/02 05:56:30;;;;;;;46.33;24.20;;;8.70;99.90;;;;;;3530437;40;20784;-67
2021/05/02 05:58:55;;;;;;;47.63;24.70;;;8.60;99.90;;;;;;3531084;40;20047;-67
2021/05/02 06:01:21;;;;;;;42.53;23.33;;;8.70;99.90;;;;;;3530468;40;20039;-67
2021/05/02 06:03:47;;;;;;;50.78;27.23;;;8.80;99.90;;;;;;3530848;40;20052;-67
2021/05/02 06:06:13;;;;;;;46.03;23.58;;;8.80;99.90;;;;;;3530984;40;20050;-67
2021/05/02 06:08:38;;;;;;;48.67;25.55;;;8.80;99.90;;;;;;3531062;40;20093;-67
2021/05/02 06:11:04;;;;;;;52.30;24.02;;;8.80;99.90;;;;;;3530595;40;20054;-67
2021/05/02 06:13:29;;;;;;;50.33;25.80;;;8.90;99.90;;;;;;3530300;40;20035;-66
2021/05/02 06:15:55;;;;;;;45.28;25.33;;;9.00;99.90;;;;;;3529624;40;20058;-59
2021/05/02 06:18:21;;;;;;;53.92;26.58;;;9.10;99.90;;;;;;3529232;40;20708;-59
2021/05/02 06:20:47;;;;;;;47.13;24.35;;;9.20;99.90;;;;;;3530203;40;20054;-59
2021/05/02 06:23:12;;;;;;;46.25;24.90;;;9.20;99.90;;;;;;3528590;40;20043;-61
2021/05/02 06:25:38;;;;;;;46.50;24.98;;;9.20;99.90;;;;;;3529026;40;20035;-61
2021/05/02 06:28:04;;;;;;;46.42;24.25;;;9.40;99.90;;;;;;3528852;40;20401;-61
2021/05/02 06:30:30;;;;;;;43.35;24.63;;;9.30;99.90;;;;;;3530181;40;20145;-61
2021/05/02 06:32:55;;;;;;;47.95;24.58;;;9.40;99.90;;;;;;3529850;40;20042;-61
2021/05/02 06:35:21;;;;;;;45.28;24.90;;;9.30;99.90;;;;;;3529915;40;20041;-61
2021/05/02 06:37:47;;;;;;;51.53;26.55;;;9.40;99.90;;;;;;3529773;40;20049;-62
2021/05/02 06:40:12;;;;;;;46.83;24.17;;;9.50;99.90;;;;;;3528175;40;20384;-61
2021/05/02 06:42:39;;;;;;;47.45;25.73;;;9.50;99.90;;;;;;3529410;40;20391;-61
2021/05/02 06:45:05;;;;;;;50.65;24.75;;;9.50;99.90;;;;;;3536668;40;20046;-61
2021/05/02 06:47:31;;;;;;;51.90;27.10;;;9.50;99.90;;;;;;3529532;40;20771;-61
2021/05/02 06:49:57;;;;;;;46.10;24.42;;;9.50;99.90;;;;;;3529403;40;20803;-61
2021/05/02 06:52:23;;;;;;;51.50;25.67;;;9.60;99.90;;;;;;3529265;40;20121;-61
2021/05/02 06:54:48;;;;;;;47.05;24.60;;;9.60;99.90;;;;;;3529970;40;20090;-61
2021/05/02 06:57:14;;;;;;;49.38;25.50;;;9.70;99.90;;;;;;3529609;40;20050;-61
2021/05/02 06:59:41;;;;;;;46.40;24.60;;;9.70;99.90;;;;;;3529406;40;20503;-61
2021/05/02 07:02:07;;;;;;;49.85;25.77;;;9.70;99.90;;;;;;3529546;40;20075;-61
2021/05/02 07:04:34;;;;;;;50.47;25.65;;;9.70;99.90;;;;;;3529492;40;20036;-61
2021/05/02 07:07:06;;;;;;;42.60;22.92;;;9.70;99.90;;;;;;3527658;40;20735;-61
2021/05/02 07:09:32;;;;;;;45.40;24.90;;;9.70;99.90;;;;;;3528796;40;20335;-61
2021/05/02 07:11:58;;;;;;;45.38;24.15;;;9.70;99.90;;;;;;3536813;40;20035;-61
2021/05/02 07:14:24;;;;;;;44.70;23.60;;;9.90;99.90;;;;;;3529833;40;20053;-61
2021/05/02 07:16:50;;;;;;;45.95;25.00;;;9.80;99.90;;;;;;3530571;40;20911;-61
2021/05/02 07:19:17;;;;;;;41.97;24.25;;;10.00;99.90;;;;;;3529663;40;20047;-62
2021/05/02 07:21:43;;;;;;;44.05;24.58;;;10.10;99.90;;;;;;3529326;40;20070;-61
2021/05/02 07:24:09;;;;;;;46.42;24.77;;;10.30;99.90;;;;;;3529671;40;20038;-61
2021/05/02 07:26:35;;;;;;;47.95;23.88;;;10.40;99.90;;;;;;3529132;40;20027;-61
2021/05/02 07:29:00;;;;;;;43.42;22.35;;;10.50;99.90;;;;;;3528965;40;20034;-61
2021/05/02 07:31:26;;;;;;;38.90;21.85;;;10.50;99.90;;;;;;3528973;40;20059;-62
2021/05/02 07:33:53;;;;;;;40.00;22.33;;;10.50;99.90;;;;;;3527543;40;20485;-61
2021/05/02 07:36:19;;;;;;;39.63;21.90;;;10.60;99.90;;;;;;3529101;40;20027;-61
2021/05/02 07:38:44;;;;;;;38.22;22.42;;;10.70;99.90;;;;;;3529294;40;20027;-61
2021/05/02 07:41:11;;;;;;;40.10;21.95;;;10.70;99.90;;;;;;3528680;40;20031;-61
2021/05/02 07:43:39;;;;;;;38.05;21.77;;;10.90;99.90;;;;;;3528412;40;20051;-61
2021/05/02 07:46:05;;;;;;;36.75;21.55;;;10.90;99.90;;;;;;3528762;40;20144;-61
2021/05/02 07:48:31;;;;;;;39.33;22.33;;;11.10;99.90;;;;;;3528418;40;20539;-61
2021/05/02 07:50:57;;;;;;;39.88;21.45;;;11.30;99.90;;;;;;3527406;40;20885;-61
2021/05/02 07:53:23;;;;;;;39.92;21.92;;;11.30;99.90;;;;;;3528336;40;20039;-61
2021/05/02 07:55:49;;;;;;;39.65;22.92;;;11.30;99.90;;;;;;3528671;40;20413;-60
2021/05/02 07:58:15;;;;;;;43.60;24.42;;;11.40;99.90;;;;;;3528306;40;20035;-60
2021/05/02 08:00:41;;;;;;;39.50;24.55;;;11.50;99.90;;;;;;3527723;40;20055;-60
2021/05/02 08:03:06;;;;;;;40.67;22.38;;;11.60;99.90;;;;;;3526761;40;20041;-60
2021/05/02 08:05:32;;;;;;;47.45;31.00;;;11.80;99.90;;;;;;3528585;40;20053;-61
2021/05/02 08:07:58;;;;;;;38.95;23.95;;;11.90;99.90;;;;;;3527259;40;20077;-61
2021/05/02 08:10:25;;;;;;;38.55;22.77;;;11.90;99.90;;;;;;3518372;40;20117;-61
2021/05/02 08:12:52;;;;;;;37.03;22.58;;;12.00;99.90;;;;;;3528370;40;20141;-61
2021/05/02 08:15:18;;;;;;;45.65;27.50;;;12.10;99.90;;;;;;3527904;40;20075;-61
2021/05/02 08:17:44;;;;;;;42.67;23.52;;;12.00;99.90;;;;;;3527764;40;20039;-61
2021/05/02 08:20:11;;;;;;;50.75;29.25;;;12.20;99.90;;;;;;3528138;40;20043;-61
2021/05/02 08:22:37;;;;;;;39.60;24.15;;;12.30;99.90;;;;;;3527788;40;20054;-61
2021/05/02 08:25:07;;;;;;;43.92;23.45;;;12.50;99.90;;;;;;3527891;40;20086;-61
2021/05/02 08:27:33;;;;;;;62.78;35.08;;;12.40;99.90;;;;;;3529831;40;20054;-61
2021/05/02 08:29:59;;;;;;;43.80;23.80;;;12.40;99.90;;;;;;3530590;40;20050;-60
2021/05/02 08:32:25;;;;;;;36.72;21.10;;;12.50;99.90;;;;;;3528197;40;20317;-61
2021/05/02 08:34:51;;;;;;;34.60;20.25;;;12.40;99.90;;;;;;3528707;40;20062;-61
2021/05/02 08:37:17;;;;;;;34.65;20.42;;;12.60;99.90;;;;;;3528555;40;20050;-61
2021/05/02 08:39:43;;;;;;;34.92;21.20;;;12.50;99.90;;;;;;3527325;40;20042;-61
2021/05/02 08:42:08;;;;;;;37.22;20.98;;;12.40;99.90;;;;;;3528359;40;20039;-61
2021/05/02 08:44:34;;;;;;;34.33;21.17;;;12.60;99.90;;;;;;3528649;40;20614;-61
2021/05/02 08:47:01;;;;;;;36.05;21.05;;;12.80;99.90;;;;;;3528363;40;20054;-61
2021/05/02 08:49:27;;;;;;;35.05;20.42;;;12.90;99.90;;;;;;3527981;40;20717;-61
2021/05/02 08:51:53;;;;;;;36.22;22.30;;;12.60;99.90;;;;;;3528137;40;20043;-68
2021/05/02 08:54:19;;;;;;;41.63;21.98;;;12.80;99.90;;;;;;3527675;40;20413;-68
2021/05/02 08:56:45;;;;;;;37.05;21.10;;;13.10;99.90;;;;;;3528368;40;20039;-69
2021/05/02 08:59:12;;;;;;;36.90;22.02;;;13.10;99.90;;;;;;3528661;40;20583;-68
2021/05/02 09:01:39;;;;;;;39.85;22.92;;;13.30;99.90;;;;;;3527885;40;20586;-69
2021/05/02 09:04:06;;;;;;;39.75;21.92;;;13.20;99.90;;;;;;3528225;40;20031;-69
2021/05/02 09:06:33;;;;;;;40.75;23.73;;;13.40;99.90;;;;;;3528862;40;20035;-68
2021/05/02 09:09:17;;;;;;;37.13;22.30;;;13.40;99.90;;;;;;3529341;40;20046;-68
2021/05/02 09:11:48;;;;;;;42.92;28.63;;;13.30;99.90;;;;;;3527982;40;20046;-61
2021/05/02 09:14:17;;;;;;;38.10;24.23;;;13.40;99.90;;;;;;3529637;40;20133;-61
2021/05/02 09:16:55;;;;;;;41.33;24.20;;;13.60;99.90;;;;;;3529410;40;20035;-61
2021/05/02 09:19:26;;;;;;;32.75;20.13;;;13.50;99.90;;;;;;3529236;40;20042;-61
2021/05/02 09:21:53;;;;;;;34.25;19.30;;;13.80;99.90;;;;;;3527305;40;20325;-61
2021/05/02 09:24:25;;;;;;;32.30;19.73;;;14.00;99.90;;;;;;3528756;40;20042;-61
2021/05/02 09:27:21;;;;;;;35.65;20.15;;;13.90;99.90;;;;;;3527480;40;20549;-61
2021/05/02 09:29:46;;;;;;;35.70;21.25;;;13.80;99.90;;;;;;3525698;40;20070;-61
2021/05/02 09:32:14;;;;;;;34.63;22.75;;;13.80;99.90;;;;;;3529147;40;20057;-61
2021/05/02 09:34:53;;;;;;;32.35;19.67;;;13.90;99.90;;;;;;3528940;40;20046;-61
2021/05/02 09:37:30;;;;;;;30.42;17.75;;;14.10;99.90;;;;;;3528742;40;20042;-60
2021/05/02 09:39:56;;;;;;;40.05;22.25;;;13.90;99.90;;;;;;3535293;40;20046;-61
2021/05/02 09:42:32;;;;;;;31.55;17.80;;;13.90;99.90;;;;;;3527796;40;20053;-61
2021/05/02 09:45:00;;;;;;;35.00;19.67;;;13.80;99.90;;;;;;3528875;40;20146;-61
2021/05/02 09:47:44;;;;;;;34.78;20.20;;;13.90;99.90;;;;;;3528317;40;20612;-61
2021/05/02 09:50:21;;;;;;;32.17;20.52;;;14.00;99.90;;;;;;3528684;40;20047;-60
2021/05/02 09:53:06;;;;;;;31.80;18.52;;;14.30;99.90;;;;;;3529571;40;20054;-61
2021/05/02 09:55:36;;;;;;;30.35;19.30;;;14.50;99.90;;;;;;3530141;40;20943;-61
2021/05/02 09:58:10;;;;;;;30.73;19.30;;;14.70;99.90;;;;;;3530402;40;20129;-61
2021/05/02 10:00:39;;;;;;;28.75;17.65;;;14.70;99.90;;;;;;3529883;40;20043;-60
2021/05/02 10:03:13;;;;;;;27.48;16.08;;;14.70;99.70;;;;;;3530010;40;20710;-61
2021/05/02 10:05:59;;;;;;;30.50;18.50;;;14.50;99.90;;;;;;3530404;40;20035;-61
2021/05/02 10:08:26;;;;;;;30.02;17.52;;;14.50;99.90;;;;;;3530181;40;20581;-61
2021/05/02 10:10:57;;;;;;;30.92;18.38;;;14.30;99.90;;;;;;3528837;40;20058;-61
2021/05/02 10:13:23;;;;;;;29.75;17.92;;;14.50;99.90;;;;;;3529873;40;20042;-61
2021/05/02 10:15:50;;;;;;;39.17;21.70;;;14.70;99.90;;;;;;3529752;40;20046;-61
2021/05/02 10:18:16;;;;;;;34.67;19.73;;;14.70;99.90;;;;;;3530189;40;20493;-60
2021/05/02 10:20:44;;;;;;;34.08;20.13;;;14.40;99.90;;;;;;3529777;40;20113;-61
2021/05/02 10:23:12;;;;;;;30.55;18.65;;;14.20;99.90;;;;;;3529466;40;20027;-61
2021/05/02 10:25:38;;;;;;;30.88;18.35;;;14.10;99.90;;;;;;3530215;40;20027;-61
2021/05/02 10:28:05;;;;;;;30.23;18.33;;;14.00;99.90;;;;;;3529686;40;20141;-61
2021/05/02 10:30:36;;;;;;;31.67;18.95;;;13.80;99.90;;;;;;3536313;40;20046;-60
2021/05/02 10:33:10;;;;;;;29.13;17.35;;;13.70;99.90;;;;;;3529363;40;20347;-61
2021/05/02 10:35:51;;;;;;;32.55;16.90;;;13.40;99.90;;;;;;3535486;40;20049;-61
2021/05/02 10:38:21;;;;;;;27.02;16.17;;;13.40;99.90;;;;;;3529639;40;20042;-61
2021/05/02 10:40:47;;;;;;;28.55;16.55;;;13.50;99.90;;;;;;3525897;40;20349;-61
2021/05/02 10:43:30;;;;;;;27.92;16.70;;;13.50;99.90;;;;;;3536360;40;20100;-61
2021/05/02 10:45:56;;;;;;;26.52;16.08;;;13.60;99.90;;;;;;3527278;40;20613;-61
2021/05/02 10:48:22;;;;;;;21.95;14.82;;;13.50;99.90;;;;;;3528752;40;20050;-68
2021/05/02 10:50:51;;;;;;;25.70;14.88;;;13.30;99.90;;;;;;3528243;40;20035;-68
2021/05/02 10:53:24;;;;;;;26.65;15.77;;;13.10;99.90;;;;;;3529361;40;20039;-68
2021/05/02 10:56:05;;;;;;;25.33;14.98;;;13.20;99.90;;;;;;3529425;40;20038;-68
2021/05/02 10:58:34;;;;;;;24.13;15.35;;;13.00;99.90;;;;;;3529661;40;20065;-67
2021/05/02 11:01:23;;;;;;;25.33;15.10;;;13.00;99.90;;;;;;3526439;40;20045;-68
2021/05/02 11:03:52;;;;;;;24.77;15.75;;;13.00;99.90;;;;;;3528358;40;20039;-67
2021/05/02 11:06:39;;;;;;;24.90;15.93;;;12.90;99.90;;;;;;3528540;40;20058;-68
2021/05/02 11:09:09;;;;;;;23.83;15.13;;;13.00;99.90;;;;;;3528049;40;20130;-69
2021/05/02 11:11:39;;;;;;;25.42;14.50;;;13.00;99.90;;;;;;3529420;40;20124;-69
2021/05/02 11:14:08;;;;;;;26.55;15.82;;;12.90;99.90;;;;;;3529359;40;20067;-61
2021/05/02 11:16:57;;;;;;;25.90;15.63;;;13.00;99.90;;;;;;3527646;40;20030;-61
2021/05/02 11:19:29;;;;;;;26.70;15.40;;;13.10;99.90;;;;;;3523984;40;20137;-61
2021/05/02 11:22:03;;;;;;;29.98;15.38;;;13.00;99.90;;;;;;3528265;40;20035;-61
2021/05/02 11:24:38;;;;;;;27.20;16.00;;;12.80;99.90;;;;;;3529114;40;20042;-68
2021/05/02 11:32:34;;;;;;;21.23;14.07;;;12.70;99.90;;;;;;3528969;40;20047;-61
2021/05/02 11:35:05;;;;;;;21.77;14.27;;;12.70;99.90;;;;;;3529486;40;20035;-61
2021/05/02 11:37:49;;;;;;;20.83;13.25;;;12.60;99.90;;;;;;3528460;40;20487;-61
2021/05/02 11:40:30;;;;;;;20.15;13.23;;;12.50;99.90;;;;;;3527684;40;20046;-61
2021/05/02 11:43:03;;;;;;;19.77;13.60;;;12.50;99.90;;;;;;3528154;40;20102;-60
2021/05/02 11:45:30;;;;;;;22.58;15.05;;;12.50;99.90;;;;;;3527230;40;20503;-61
2021/05/02 11:47:56;;;;;;;22.10;15.18;;;12.50;99.90;;;;;;3527568;40;20928;-61
2021/05/02 11:50:22;;;;;;;22.70;14.10;;;12.50;99.90;;;;;;3528601;40;20043;-61
2021/05/02 11:52:50;;;;;;;23.85;15.20;;;12.40;99.90;;;;;;3528010;40;20027;-61
2021/05/02 11:55:26;;;;;;;23.80;15.07;;;12.40;99.90;;;;;;3528883;40;20041;-60
2021/05/02 11:57:51;;;;;;;22.48;14.38;;;12.20;99.90;;;;;;3528390;40;20031;-62
2021/05/02 12:00:37;;;;;;;23.02;14.68;;;12.00;99.90;;;;;;3527877;40;20065;-60
2021/05/02 12:03:04;;;;;;;21.85;14.82;;;11.90;99.90;;;;;;3528214;40;20041;-61
2021/05/02 12:05:30;;;;;;;23.95;15.23;;;11.70;99.90;;;;;;3528028;40;20760;-60
2021/05/02 12:08:12;;;;;;;25.02;15.10;;;11.70;99.90;;;;;;3528327;40;20075;-61
2021/05/02 12:10:39;;;;;;;24.05;14.32;;;11.60;99.90;;;;;;3528045;40;20043;-61
2021/05/02 12:13:05;;;;;;;23.33;14.45;;;11.50;99.90;;;;;;3529233;40;20038;-60
2021/05/02 12:15:34;;;;;;;19.90;13.45;;;11.50;99.90;;;;;;3529416;40;20078;-61
2021/05/02 12:18:00;;;;;;;17.73;12.70;;;11.50;99.90;;;;;;3522542;40;20039;-60
2021/05/02 12:20:27;;;;;;;17.55;11.90;;;11.70;99.90;;;;;;3527683;40;20042;-60
2021/05/02 12:22:54;;;;;;;16.00;11.07;;;11.80;99.90;;;;;;3527720;40;20031;-60
2021/05/02 12:25:20;;;;;;;14.45;9.45;;;12.10;99.90;;;;;;3528055;40;20043;-61
2021/05/02 12:27:59;;;;;;;13.65;9.05;;;12.10;99.90;;;;;;3528001;40;20102;-61
2021/05/02 12:30:26;;;;;;;15.60;9.77;;;12.30;99.90;;;;;;3527755;40;20710;-61
2021/05/02 12:32:55;;;;;;;14.13;9.65;;;12.40;99.90;;;;;;3527967;40;20051;-61
2021/05/02 12:35:21;;;;;;;15.10;10.50;;;12.60;99.90;;;;;;3527150;40;20046;-60
2021/05/02 12:37:47;;;;;;;18.65;11.90;;;12.70;99.90;;;;;;3527789;40;20046;-61
2021/05/02 12:40:13;;;;;;;18.77;12.10;;;12.70;99.40;;;;;;3527794;40;20400;-60
2021/05/02 12:42:41;;;;;;;17.85;11.98;;;12.70;99.10;;;;;;3527788;40;20069;-61
2021/05/02 12:45:09;;;;;;;20.10;11.80;;;12.90;99.20;;;;;;3527939;40;20085;-61
2021/05/02 12:47:46;;;;;;;18.10;11.95;;;13.30;99.60;;;;;;3527156;40;20050;-61